Time;durP1;ratioP1;P1;durP2;ratioP2;P2;SDS_P1;SDS_P2;PMS_P1;PMS_P2;Temp;Humidity;BMP_temperature;BMP_pressure;BME280_temperature;BME280_humidity;BME280_pressure;Samples;Min_cycle;Max_cycle;Signal;HPM_P1;HPM_P2
2023/04/18 00:01:38;;;;;;;;;;;;;;;22.89;45.23;96424.26;612319;231;67003;-59
2023/04/18 00:04:05;;;;;;;;;;;;;;;22.89;46.39;96423.44;611784;230;65100;-59
2023/04/18 00:06:38;;;;;;;;;;;;;;;22.88;45.60;96419.97;611325;231;66747;-59
2023/04/18 00:09:03;;;;;;;;;;;;;;;22.89;45.04;96420.77;611116;232;66854;-59
2023/04/18 00:11:30;;;;;;;;;;;;;;;22.87;45.08;96420.29;613455;230;62974;-59
2023/04/18 00:13:58;;;;;;;;;;;;;;;22.88;45.87;96427.22;612662;230;64985;-59
2023/04/18 00:16:27;;;;;;;;;;;;;;;22.87;45.63;96422.97;611928;231;66663;-59
2023/04/18 00:18:55;;;;;;;;;;;;;;;22.86;46.05;96424.83;612212;231;65006;-59
2023/04/18 00:21:25;;;;;;;;;;;;;;;22.86;46.00;96422.15;611653;231;64749;-59
2023/04/18 00:23:52;;;;;;;;;;;;;;;22.86;45.53;96424.04;612440;231;66837;-59
2023/04/18 00:26:20;;;;;;;;;;;;;;;22.85;46.39;96425.14;612963;231;65038;-59
2023/04/18 00:28:47;;;;;;;;;;;;;;;22.83;45.09;96423.56;611458;231;67754;-59
2023/04/18 00:31:15;;;;;;;;;;;;;;;22.83;45.08;96425.42;611595;231;66774;-59
2023/04/18 00:33:42;;;;;;;;;;;;;;;22.83;46.75;96425.42;612052;230;65158;-59
2023/04/18 00:36:10;;;;;;;;;;;;;;;22.82;47.51;96421.95;612510;231;65490;-59
2023/04/18 00:38:37;;;;;;;;;;;;;;;22.82;47.15;96431.88;612169;231;64356;-59
2023/04/18 00:41:05;;;;;;;;;;;;;;;22.80;45.46;96424.13;611366;232;65804;-59
2023/04/18 00:43:33;;;;;;;;;;;;;;;22.80;45.39;96423.34;611435;232;66794;-59
2023/04/18 00:46:01;;;;;;;;;;;;;;;22.80;47.74;96426.81;611868;231;66624;-59
2023/04/18 00:48:29;;;;;;;;;;;;;;;22.79;47.22;96422.55;611976;232;62757;-58
2023/04/18 00:50:57;;;;;;;;;;;;;;;22.79;47.16;96427.13;611793;232;66959;-59
2023/04/18 00:53:25;;;;;;;;;;;;;;;22.77;46.78;96416.69;611657;231;66853;-59
2023/04/18 00:55:53;;;;;;;;;;;;;;;22.78;47.39;96425.52;612092;231;65068;-59
2023/04/18 00:58:20;;;;;;;;;;;;;;;22.76;47.30;96422.36;611430;231;68022;-58
2023/04/18 01:00:48;;;;;;;;;;;;;;;22.76;46.89;96417.80;612702;231;67193;-59
2023/04/18 01:03:17;;;;;;;;;;;;;;;22.76;46.27;96417.01;611654;231;64460;-59
2023/04/18 01:05:45;;;;;;;;;;;;;;;22.75;46.47;96416.22;612313;231;67283;-59
2023/04/18 01:08:13;;;;;;;;;;;;;;;22.75;46.52;96423.44;612120;231;66992;-58
2023/04/18 01:10:41;;;;;;;;;;;;;;;22.75;47.70;96416.22;604750;231;65142;-59
2023/04/18 01:13:12;;;;;;;;;;;;;;;22.75;46.82;96418.08;611629;231;67298;-60
2023/04/18 01:15:40;;;;;;;;;;;;;;;22.73;48.14;96421.07;612427;231;66968;-59
2023/04/18 01:18:08;;;;;;;;;;;;;;;22.74;49.67;96424.53;612177;230;62968;-59
2023/04/18 01:20:37;;;;;;;;;;;;;;;22.72;47.27;96419.46;611240;232;67146;-58
2023/04/18 01:23:04;;;;;;;;;;;;;;;22.72;48.47;96414.11;611647;230;67054;-59
2023/04/18 01:25:33;;;;;;;;;;;;;;;22.72;46.18;96416.78;611885;230;41580;-59
2023/04/18 01:28:03;;;;;;;;;;;;;;;22.71;48.55;96420.56;611793;231;65024;-59
2023/04/18 01:30:30;;;;;;;;;;;;;;;22.70;47.14;96416.31;611734;230;65761;-58
2023/04/18 01:32:59;;;;;;;;;;;;;;;22.70;46.22;96416.31;611353;231;63037;-59
2023/04/18 01:35:27;;;;;;;;;;;;;;;22.70;48.47;96410.95;611492;230;67304;-59
2023/04/18 01:37:56;;;;;;;;;;;;;;;22.69;46.39;96416.59;611646;230;65087;-59
2023/04/18 01:40:24;;;;;;;;;;;;;;;22.68;45.87;96413.13;612810;231;62787;-59
2023/04/18 01:42:53;;;;;;;;;;;;;;;22.68;46.00;96405.09;612460;230;65572;-59
2023/04/18 01:45:21;;;;;;;;;;;;;;;22.68;48.02;96407.77;611528;230;64787;-59
2023/04/18 01:47:48;;;;;;;;;;;;;;;22.68;47.66;96413.13;611414;230;64981;-59
2023/04/18 01:50:16;;;;;;;;;;;;;;;22.67;47.16;96419.58;611445;231;67070;-59
2023/04/18 01:52:43;;;;;;;;;;;;;;;22.67;47.26;96419.58;605934;232;67402;-59
2023/04/18 01:55:11;;;;;;;;;;;;;;;22.66;48.01;96412.62;611776;232;64923;-59
2023/04/18 01:57:38;;;;;;;;;;;;;;;22.66;46.00;96411.83;611382;232;64673;-58
2023/04/18 02:00:07;;;;;;;;;;;;;;;22.65;46.83;96410.25;602739;232;67164;-59
2023/04/18 02:02:43;;;;;;;;;;;;;;;22.64;49.42;96409.44;607720;231;37660;-59
2023/04/18 02:05:10;;;;;;;;;;;;;;;22.65;48.64;96411.04;613174;230;65657;-59
2023/04/18 02:07:39;;;;;;;;;;;;;;;22.64;48.19;96416.68;611424;232;67609;-59
2023/04/18 02:10:07;;;;;;;;;;;;;;;22.64;48.04;96422.83;611421;230;63050;-59
2023/04/18 02:12:35;;;;;;;;;;;;;;;22.63;48.53;96418.57;612016;230;67295;-58
2023/04/18 02:15:02;;;;;;;;;;;;;;;22.63;47.25;96418.57;611968;232;67533;-59
2023/04/18 02:17:30;;;;;;;;;;;;;;;22.61;48.52;96416.17;607065;231;64309;-58
2023/04/18 02:19:58;;;;;;;;;;;;;;;22.61;48.74;96415.39;611595;231;64921;-59
2023/04/18 02:22:25;;;;;;;;;;;;;;;22.60;47.68;96419.95;611451;231;64931;-58
2023/04/18 02:24:53;;;;;;;;;;;;;;;22.61;49.24;96428.77;611552;231;65037;-58
2023/04/18 02:27:20;;;;;;;;;;;;;;;22.61;47.83;96428.77;611359;232;67172;-59
2023/04/18 02:29:48;;;;;;;;;;;;;;;22.60;48.75;96421.84;611758;231;66869;-59
2023/04/18 02:32:15;;;;;;;;;;;;;;;22.58;47.64;96414.09;611339;230;65065;-59
2023/04/18 02:34:44;;;;;;;;;;;;;;;22.59;47.03;96412.23;602938;230;64643;-59
2023/04/18 02:37:11;;;;;;;;;;;;;;;22.59;49.26;96414.91;613848;230;67113;-59
2023/04/18 02:39:40;;;;;;;;;;;;;;;22.59;49.89;96414.91;611269;232;65678;-59
2023/04/18 02:42:07;;;;;;;;;;;;;;;22.57;47.35;96417.08;611316;231;68215;-59
2023/04/18 02:44:34;;;;;;;;;;;;;;;22.56;47.17;96416.30;611384;232;67047;-59
2023/04/18 02:47:02;;;;;;;;;;;;;;;22.55;46.68;96417.36;611618;230;65049;-59
2023/04/18 02:49:31;;;;;;;;;;;;;;;22.55;48.86;96428.08;611442;231;67834;-59
2023/04/18 02:51:58;;;;;;;;;;;;;;;22.54;49.37;96425.70;611828;231;64574;-59
2023/04/18 02:54:26;;;;;;;;;;;;;;;22.54;48.85;96421.14;611936;230;62497;-58
2023/04/18 02:56:55;;;;;;;;;;;;;;;22.54;48.68;96425.70;612218;231;48695;-59
2023/04/18 02:59:25;;;;;;;;;;;;;;;22.54;48.50;96433.74;610902;230;48206;-59
2023/04/18 03:02:10;;;;;;;;;;;;;;;22.53;48.52;96426.78;611728;230;39924;-59
2023/04/18 03:04:39;;;;;;;;;;;;;;;22.53;47.86;96429.45;611362;230;43883;-59
2023/04/18 03:07:08;;;;;;;;;;;;;;;22.52;49.03;96431.34;611369;232;65640;-59
2023/04/18 03:09:37;;;;;;;;;;;;;;;22.51;48.72;96428.98;611758;231;66060;-59
2023/04/18 03:12:06;;;;;;;;;;;;;;;22.52;48.16;96425.20;612324;231;43968;-59
2023/04/18 03:14:34;;;;;;;;;;;;;;;22.50;49.24;96428.16;611944;231;67388;-59
2023/04/18 03:17:03;;;;;;;;;;;;;;;22.50;48.91;96438.08;612290;230;63005;-59
2023/04/18 03:19:32;;;;;;;;;;;;;;;22.50;48.25;96441.55;612622;231;45683;-59
2023/04/18 03:22:01;;;;;;;;;;;;;;;22.49;49.05;96442.65;612300;231;45153;-59
2023/04/18 03:24:29;;;;;;;;;;;;;;;22.49;48.43;96447.21;611540;231;62528;-59
2023/04/18 03:26:59;;;;;;;;;;;;;;;22.48;47.70;96445.61;612106;229;43873;-59
2023/04/18 03:29:27;;;;;;;;;;;;;;;22.49;48.90;96447.21;612033;231;64801;-59
2023/04/18 03:31:55;;;;;;;;;;;;;;;22.48;49.25;96448.28;611617;232;65676;-59
2023/04/18 03:34:23;;;;;;;;;;;;;;;22.47;48.63;96452.84;611420;230;67654;-59
2023/04/18 03:36:51;;;;;;;;;;;;;;;22.47;49.51;96444.03;611576;231;65608;-59
2023/04/18 03:39:18;;;;;;;;;;;;;;;22.47;50.35;96449.37;612075;231;65288;-59
2023/04/18 03:41:46;;;;;;;;;;;;;;;22.46;49.84;96455.84;612214;231;67748;-59
2023/04/18 03:44:14;;;;;;;;;;;;;;;22.46;49.83;96458.52;611555;230;67561;-60
2023/04/18 03:46:42;;;;;;;;;;;;;;;22.45;49.40;96455.02;611532;232;62957;-59
2023/04/18 03:49:09;;;;;;;;;;;;;;;22.45;50.26;96467.62;612205;231;67252;-60
2023/04/18 03:51:46;;;;;;;;;;;;;;;22.44;50.01;96458.80;612436;231;64783;-59
2023/04/18 03:54:14;;;;;;;;;;;;;;;22.44;49.29;96463.36;612077;232;64997;-61
2023/04/18 03:56:42;;;;;;;;;;;;;;;22.43;50.96;96470.60;611348;232;64847;-58
2023/04/18 03:59:10;;;;;;;;;;;;;;;22.42;49.87;96466.31;611885;231;66811;-58
2023/04/18 04:01:39;;;;;;;;;;;;;;;22.43;49.10;96469.81;612237;231;43913;-59
2023/04/18 04:04:08;;;;;;;;;;;;;;;22.41;50.02;96469.30;612056;232;66771;-60
2023/04/18 04:06:35;;;;;;;;;;;;;;;22.41;49.36;96469.30;611934;231;66855;-59
2023/04/18 04:09:03;;;;;;;;;;;;;;;22.41;49.54;96475.45;611579;231;62594;-59
2023/04/18 04:11:31;;;;;;;;;;;;;;;22.41;50.42;96471.98;612336;231;67354;-59
2023/04/18 04:13:58;;;;;;;;;;;;;;;22.39;48.28;96472.27;611908;230;67051;-59
2023/04/18 04:16:28;;;;;;;;;;;;;;;22.39;49.13;96473.05;611946;230;43770;-59
2023/04/18 04:18:56;;;;;;;;;;;;;;;22.39;49.95;96478.41;612394;231;67542;-59
2023/04/18 04:21:26;;;;;;;;;;;;;;;22.39;50.23;96481.08;612553;231;45418;-59
2023/04/18 04:23:54;;;;;;;;;;;;;;;22.40;49.25;96481.90;612435;231;62643;-59
2023/04/18 04:26:25;;;;;;;;;;;;;;;22.38;49.67;96482.18;611403;230;44296;-59
2023/04/18 04:28:54;;;;;;;;;;;;;;;22.39;48.49;96482.97;615021;230;44361;-59
2023/04/18 04:31:23;;;;;;;;;;;;;;;22.39;48.47;96483.76;611741;232;64865;-59
2023/04/18 04:33:50;;;;;;;;;;;;;;;22.39;49.46;96481.08;611431;232;68226;-59
2023/04/18 04:36:21;;;;;;;;;;;;;;;22.41;47.87;96480.02;611624;230;67731;-58
2023/04/18 04:38:49;;;;;;;;;;;;;;;22.41;47.64;96482.69;605927;232;62783;-59
2023/04/18 04:41:17;;;;;;;;;;;;;;;22.42;47.06;96492.30;611876;231;68000;-59
2023/04/18 04:43:45;;;;;;;;;;;;;;;22.42;48.61;96493.09;611891;231;67411;-59
2023/04/18 04:46:14;;;;;;;;;;;;;;;22.42;49.04;96497.66;611404;232;65445;-59
2023/04/18 04:48:42;;;;;;;;;;;;;;;22.43;49.91;96494.70;611959;231;65084;-59
2023/04/18 04:51:10;;;;;;;;;;;;;;;22.42;47.85;96501.13;611957;230;67372;-59
2023/04/18 04:53:37;;;;;;;;;;;;;;;22.44;49.70;96508.88;611759;230;65023;-59
2023/04/18 04:56:06;;;;;;;;;;;;;;;22.44;47.85;96511.55;611569;232;64986;-59
2023/04/18 04:58:33;;;;;;;;;;;;;;;22.45;49.18;96510.45;611434;232;64846;-59
2023/04/18 05:01:15;;;;;;;;;;;;;;;22.46;49.99;96509.39;611724;231;43765;-59
2023/04/18 05:03:44;;;;;;;;;;;;;;;22.45;50.01;96513.92;611553;230;64808;-59
2023/04/18 05:06:12;;;;;;;;;;;;;;;22.45;49.27;96513.92;608582;232;67042;-60
2023/04/18 05:08:40;;;;;;;;;;;;;;;22.47;50.58;96525.14;613867;230;65131;-59
2023/04/18 05:11:07;;;;;;;;;;;;;;;22.46;50.05;96515.53;612260;230;67408;-60
2023/04/18 05:13:35;;;;;;;;;;;;;;;22.48;49.78;96515.22;611365;232;67221;-59
2023/04/18 05:16:03;;;;;;;;;;;;;;;22.49;50.65;96524.86;612333;230;65750;-59
2023/04/18 05:18:30;;;;;;;;;;;;;;;22.49;51.11;96522.98;611936;231;67280;-59
2023/04/18 05:20:57;;;;;;;;;;;;;;;22.50;50.12;96523.77;611476;230;64934;-59
2023/04/18 05:23:25;;;;;;;;;;;;;;;22.49;51.21;96520.30;612028;230;62754;-59
2023/04/18 05:25:54;;;;;;;;;;;;;;;22.49;50.54;96520.30;612672;229;67377;-59
2023/04/18 05:28:23;;;;;;;;;;;;;;;22.50;48.81;96524.55;611637;231;65791;-61
2023/04/18 05:30:59;;;;;;;;;;;;;;;22.51;50.13;96523.48;606553;232;65030;-59
2023/04/18 05:33:23;;;;;;;;;;;;;;;22.51;50.59;96520.02;611773;231;67424;-59
2023/04/18 05:35:50;;;;;;;;;;;;;;;22.52;50.59;96527.74;611908;231;67135;-59
2023/04/18 05:38:18;;;;;;;;;;;;;;;22.53;49.61;96528.53;611454;231;65121;-59
2023/04/18 05:40:45;;;;;;;;;;;;;;;22.54;50.08;96527.47;611259;232;67205;-59
2023/04/18 05:43:13;;;;;;;;;;;;;;;22.54;50.61;96527.47;611531;231;67018;-59
2023/04/18 05:45:40;;;;;;;;;;;;;;;22.55;51.14;96526.37;611560;232;65058;-59
2023/04/18 05:48:08;;;;;;;;;;;;;;;22.57;45.63;96529.55;611410;232;68122;-58
2023/04/18 05:50:35;;;;;;;;;;;;;;;22.59;46.86;96528.17;611218;231;66816;-59
2023/04/18 05:53:03;;;;;;;;;;;;;;;22.64;47.84;96535.31;611399;232;65010;-61
2023/04/18 05:55:30;;;;;;;;;;;;;;;22.64;47.67;96543.34;611386;230;67271;-59
2023/04/18 05:57:58;;;;;;;;;;;;;;;22.65;50.49;96541.48;613747;230;67404;-62
2023/04/18 06:00:26;;;;;;;;;;;;;;;22.62;45.45;96540.19;611919;230;62655;-60
2023/04/18 06:02:54;;;;;;;;;;;;;;;22.63;47.78;96552.48;611327;230;67239;-61
2023/04/18 06:05:22;;;;;;;;;;;;;;;22.64;51.35;96539.88;611874;231;68163;-59
2023/04/18 06:07:49;;;;;;;;;;;;;;;22.62;50.17;96537.51;611727;231;65133;-62
2023/04/18 06:10:17;;;;;;;;;;;;;;;22.60;50.38;96537.79;611531;231;67170;-59
2023/04/18 06:12:44;;;;;;;;;;;;;;;22.62;50.58;96540.19;612300;231;66978;-62
2023/04/18 06:15:12;;;;;;;;;;;;;;;22.62;51.03;96542.87;612016;230;65110;-61
2023/04/18 06:17:39;;;;;;;;;;;;;;;22.61;50.35;96546.61;612154;231;64652;-60
2023/04/18 06:20:09;;;;;;;;;;;;;;;22.62;49.48;96540.19;612387;231;67018;-61
2023/04/18 06:22:36;;;;;;;;;;;;;;;22.61;49.96;96539.37;612079;231;62966;-61
2023/04/18 06:25:04;;;;;;;;;;;;;;;22.62;50.03;96540.19;612344;231;67451;-61
2023/04/18 06:27:32;;;;;;;;;;;;;;;22.63;49.44;96532.94;612444;231;67007;-60
2023/04/18 06:29:59;;;;;;;;;;;;;;;22.64;50.35;96529.95;612235;231;62762;-61
2023/04/18 06:32:27;;;;;;;;;;;;;;;22.65;50.68;96528.89;612751;231;65098;-61
2023/04/18 06:34:54;;;;;;;;;;;;;;;22.66;48.81;96535.82;612788;231;64899;-61
2023/04/18 06:37:22;;;;;;;;;;;;;;;22.67;50.04;96540.11;614045;231;62915;-61
2023/04/18 06:39:49;;;;;;;;;;;;;;;22.68;49.70;96544.37;613994;231;65020;-61
2023/04/18 06:42:17;;;;;;;;;;;;;;;22.69;49.99;96540.59;614064;231;67073;-61
2023/04/18 06:44:44;;;;;;;;;;;;;;;22.71;50.37;96548.34;614000;231;65130;-61
2023/04/18 06:47:12;;;;;;;;;;;;;;;22.70;49.33;96544.88;614011;231;67245;-61
2023/04/18 06:49:39;;;;;;;;;;;;;;;22.73;50.01;96554.21;614031;231;67078;-62
2023/04/18 06:52:07;;;;;;;;;;;;;;;22.74;49.51;96559.26;613979;231;64934;-62
2023/04/18 06:54:34;;;;;;;;;;;;;;;22.83;45.30;96564.73;614008;231;67105;-60
2023/04/18 06:57:02;;;;;;;;;;;;;;;22.86;45.89;96563.36;614037;231;64886;-61
2023/04/18 06:59:30;;;;;;;;;;;;;;;22.87;47.77;96563.08;613971;231;65380;-61
2023/04/18 07:01:57;;;;;;;;;;;;;;;22.87;49.04;96564.97;614016;231;68501;-61
2023/04/18 07:04:25;;;;;;;;;;;;;;;22.86;49.35;96560.67;614128;231;66794;-60
2023/04/18 07:06:53;;;;;;;;;;;;;;;22.85;50.67;96569.81;613979;231;66251;-61
2023/04/18 07:09:21;;;;;;;;;;;;;;;22.84;49.36;96569.02;614083;231;67218;-61
2023/04/18 07:11:51;;;;;;;;;;;;;;;22.85;48.76;96580.53;614050;231;67351;-61
2023/04/18 07:14:20;;;;;;;;;;;;;;;22.87;51.06;96586.41;614085;231;65088;-61
2023/04/18 07:16:47;;;;;;;;;;;;;;;22.88;49.99;96579.94;614015;231;64860;-60
2023/04/18 07:19:15;;;;;;;;;;;;;;;22.89;47.82;96581.52;614137;231;64860;-60
2023/04/18 07:21:44;;;;;;;;;;;;;;;22.91;50.09;96596.22;614139;231;65110;-61
2023/04/18 07:24:11;;;;;;;;;;;;;;;22.92;49.45;96587.11;614019;231;67237;-61
2023/04/18 07:26:39;;;;;;;;;;;;;;;22.95;47.94;96585.73;614078;231;65060;-60
2023/04/18 07:29:06;;;;;;;;;;;;;;;22.95;49.54;96599.13;614139;231;64995;-61
2023/04/18 07:31:34;;;;;;;;;;;;;;;22.97;49.02;96594.28;612693;231;67134;-62
2023/04/18 07:34:02;;;;;;;;;;;;;;;22.99;47.50;96592.11;613128;231;67064;-61
2023/04/18 07:36:30;;;;;;;;;;;;;;;22.98;47.26;96596.67;613978;231;62718;-61
2023/04/18 07:38:57;;;;;;;;;;;;;;;23.00;46.98;96597.19;613971;231;67470;-61
2023/04/18 07:41:26;;;;;;;;;;;;;;;23.02;47.51;96588.84;613339;231;67169;-62
2023/04/18 07:43:54;;;;;;;;;;;;;;;23.02;49.35;96588.84;612212;231;65045;-61
2023/04/18 07:46:21;;;;;;;;;;;;;;;23.03;48.15;96588.55;612450;231;65858;-60
2023/04/18 07:48:49;;;;;;;;;;;;;;;23.04;48.28;96586.66;612454;231;67222;-60
2023/04/18 07:51:17;;;;;;;;;;;;;;;23.06;47.52;96584.49;612059;231;63119;-60
2023/04/18 07:53:44;;;;;;;;;;;;;;;23.08;46.87;96589.55;612202;231;64722;-60
2023/04/18 07:56:13;;;;;;;;;;;;;;;23.09;47.93;96586.58;612019;231;64724;-60
2023/04/18 07:58:40;;;;;;;;;;;;;;;23.10;47.66;96592.73;611970;231;65150;-60
2023/04/18 08:01:12;;;;;;;;;;;;;;;23.11;47.39;96596.99;612391;231;66883;-61
2023/04/18 08:03:37;;;;;;;;;;;;;;;23.12;48.74;96596.71;612985;231;66827;-62
2023/04/18 08:06:05;;;;;;;;;;;;;;;23.12;47.29;96591.34;612785;231;65000;-61
2023/04/18 08:08:32;;;;;;;;;;;;;;;23.13;48.46;96598.29;610983;231;66947;-62
2023/04/18 08:11:00;;;;;;;;;;;;;;;23.13;48.48;96592.93;611811;231;66836;-61
2023/04/18 08:13:28;;;;;;;;;;;;;;;23.13;49.12;96590.25;612715;231;65133;-61
2023/04/18 08:15:58;;;;;;;;;;;;;;;23.13;48.33;96592.93;613146;231;66973;-61
2023/04/18 08:18:24;;;;;;;;;;;;;;;23.13;50.82;96597.50;612638;231;66825;-61
2023/04/18 08:20:52;;;;;;;;;;;;;;;23.13;48.57;96594.82;612165;231;65053;-60
2023/04/18 08:23:20;;;;;;;;;;;;;;;23.13;48.94;96597.50;612329;231;67274;-62
2023/04/18 08:25:47;;;;;;;;;;;;;;;23.13;48.54;96600.97;612481;231;65167;-62
2023/04/18 08:28:15;;;;;;;;;;;;;;;23.14;49.59;96610.62;612074;231;63788;-62
2023/04/18 08:30:42;;;;;;;;;;;;;;;23.14;49.39;96596.42;612275;231;67242;-62
2023/04/18 08:33:10;;;;;;;;;;;;;;;23.15;48.44;96603.37;613056;231;66987;-62
2023/04/18 08:35:38;;;;;;;;;;;;;;;23.15;49.81;96598.80;612370;231;65037;-61
2023/04/18 08:38:05;;;;;;;;;;;;;;;23.16;47.71;96604.95;612133;231;65018;-61
2023/04/18 08:40:34;;;;;;;;;;;;;;;23.18;47.03;96600.09;611575;231;67074;-61
2023/04/18 08:43:06;;;;;;;;;;;;;;;23.20;47.94;96612.11;612114;231;65050;-62
2023/04/18 08:45:32;;;;;;;;;;;;;;;23.21;48.79;96612.91;612305;231;64678;-62
2023/04/18 08:48:01;;;;;;;;;;;;;;;23.22;47.94;96609.16;612256;231;67047;-64
2023/04/18 08:50:28;;;;;;;;;;;;;;;23.24;48.40;96612.31;611472;231;62932;-60
2023/04/18 08:52:56;;;;;;;;;;;;;;;23.24;46.94;96614.99;610938;231;67506;-62
2023/04/18 08:55:24;;;;;;;;;;;;;;;23.25;46.49;96617.39;610936;232;67041;-62
2023/04/18 08:57:53;;;;;;;;;;;;;;;23.26;46.99;96608.25;610913;232;65066;-61
2023/04/18 09:00:21;;;;;;;;;;;;;;;23.28;48.35;96605.28;612387;231;67366;-61
2023/04/18 09:02:53;;;;;;;;;;;;;;;23.28;47.83;96612.54;611956;231;64924;-62
2023/04/18 09:05:19;;;;;;;;;;;;;;;23.29;46.72;96611.44;611926;231;65044;-62
2023/04/18 09:07:48;;;;;;;;;;;;;;;23.32;45.73;96610.84;613449;231;66871;-61
2023/04/18 09:10:29;;;;;;;;;;;;;;;23.34;46.16;96619.39;612687;231;66855;-62
2023/04/18 09:12:57;;;;;;;;;;;;;;;23.36;45.54;96618.01;612484;231;65095;-62
2023/04/18 09:15:27;;;;;;;;;;;;;;;23.36;46.18;96614.54;611989;231;64569;-62
2023/04/18 09:18:01;;;;;;;;;;;;;;;23.37;46.84;96619.59;612066;231;67178;-62
2023/04/18 09:20:43;;;;;;;;;;;;;;;23.38;45.85;96615.84;612283;231;65168;-61
2023/04/18 09:23:15;;;;;;;;;;;;;;;23.41;47.13;96625.17;613014;231;66997;-61
2023/04/18 09:25:45;;;;;;;;;;;;;;;23.41;47.83;96625.17;612266;231;64789;-61
2023/04/18 09:28:22;;;;;;;;;;;;;;;23.41;47.19;96625.97;611985;231;65184;-62
2023/04/18 09:30:51;;;;;;;;;;;;;;;23.42;47.57;96622.19;612401;231;64863;-62
2023/04/18 09:33:21;;;;;;;;;;;;;;;23.43;45.56;96617.61;612076;231;66422;-62
2023/04/18 09:35:48;;;;;;;;;;;;;;;23.45;47.62;96632.31;612066;231;65253;-61
2023/04/18 09:38:16;;;;;;;;;;;;;;;23.44;46.20;96628.05;613072;231;64755;-62
2023/04/18 09:40:43;;;;;;;;;;;;;;;23.45;46.53;96626.95;611939;231;64908;-64
2023/04/18 09:43:18;;;;;;;;;;;;;;;23.44;44.88;96628.05;612124;231;62930;-64
2023/04/18 09:45:47;;;;;;;;;;;;;;;23.50;45.04;96628.75;606771;231;64802;-63
2023/04/18 09:48:15;;;;;;;;;;;;;;;23.51;45.90;96622.28;613548;229;66715;-63
2023/04/18 09:50:44;;;;;;;;;;;;;;;23.52;48.22;96626.58;606148;230;64953;-62
2023/04/18 09:53:13;;;;;;;;;;;;;;;23.52;47.21;96617.71;604451;233;64420;-63
2023/04/18 09:55:42;;;;;;;;;;;;;;;23.52;47.84;96623.89;607145;233;66902;-63
2023/04/18 09:58:10;;;;;;;;;;;;;;;23.53;46.50;96620.11;602297;232;65048;-63
2023/04/18 10:00:38;;;;;;;;;;;;;;;23.55;47.08;96619.83;603776;233;66749;-61
2023/04/18 10:03:09;;;;;;;;;;;;;;;23.54;46.22;96624.37;607575;233;66893;-63
2023/04/18 10:05:38;;;;;;;;;;;;;;;23.56;47.52;96624.87;605729;233;63040;-62
2023/04/18 10:08:07;;;;;;;;;;;;;;;23.57;47.86;96623.80;606032;232;65013;-62
2023/04/18 10:10:35;;;;;;;;;;;;;;;23.57;46.76;96621.12;612577;230;66827;-63
2023/04/18 10:13:03;;;;;;;;;;;;;;;23.57;46.15;96623.80;611345;232;62990;-60
2023/04/18 10:15:31;;;;;;;;;;;;;;;23.58;46.63;96619.23;611342;230;66917;-63
2023/04/18 10:18:03;;;;;;;;;;;;;;;23.58;46.06;96620.02;611423;231;66936;-60
2023/04/18 10:20:31;;;;;;;;;;;;;;;23.59;46.24;96624.28;611518;230;65110;-61
2023/04/18 10:22:59;;;;;;;;;;;;;;;23.60;47.15;96628.57;611573;231;64775;-62
2023/04/18 10:25:40;;;;;;;;;;;;;;;23.60;48.12;96628.57;611950;232;66653;-61
2023/04/18 10:28:09;;;;;;;;;;;;;;;23.61;46.17;96630.16;612772;231;63078;-60
2023/04/18 10:30:42;;;;;;;;;;;;;;;23.63;47.96;96632.55;613460;230;67110;-61
2023/04/18 10:33:29;;;;;;;;;;;;;;;23.61;45.46;96624.78;613925;230;67126;-63
2023/04/18 10:35:58;;;;;;;;;;;;;;;23.64;45.18;96629.55;611492;232;65289;-61
2023/04/18 10:38:26;;;;;;;;;;;;;;;23.65;46.00;96630.34;611477;230;64612;-61
2023/04/18 10:40:53;;;;;;;;;;;;;;;23.65;47.38;96627.66;611742;231;67959;-62
2023/04/18 10:43:21;;;;;;;;;;;;;;;23.65;46.48;96624.98;612644;231;65139;-62
2023/04/18 10:45:50;;;;;;;;;;;;;;;23.66;48.44;96630.06;611571;230;66899;-62
2023/04/18 10:48:30;;;;;;;;;;;;;;;23.66;45.60;96626.59;610481;231;66708;-60
2023/04/18 10:51:14;;;;;;;;;;;;;;;23.67;46.56;96626.27;611064;231;62561;-60
2023/04/18 10:53:43;;;;;;;;;;;;;;;23.69;48.13;96625.98;611442;230;66923;-60
2023/04/18 10:56:12;;;;;;;;;;;;;;;23.70;47.02;96636.41;611642;231;67033;-61
2023/04/18 10:58:41;;;;;;;;;;;;;;;23.70;47.04;96633.72;611861;232;62924;-61
2023/04/18 11:01:10;;;;;;;;;;;;;;;23.71;46.94;96634.58;611633;232;66883;-62
2023/04/18 11:03:38;;;;;;;;;;;;;;;23.73;48.11;96628.89;612005;231;66968;-61
2023/04/18 11:06:05;;;;;;;;;;;;;;;23.73;47.48;96635.05;611642;231;65131;-61
2023/04/18 11:08:33;;;;;;;;;;;;;;;23.75;48.60;96635.55;611781;231;66990;-61
2023/04/18 11:11:02;;;;;;;;;;;;;;;23.75;47.53;96632.87;611371;230;66720;-61
2023/04/18 11:13:30;;;;;;;;;;;;;;;23.82;46.13;96630.59;611426;231;65021;-60
2023/04/18 11:15:58;;;;;;;;;;;;;;;23.87;45.81;96621.62;612156;228;66694;-62
2023/04/18 11:18:25;;;;;;;;;;;;;;;23.88;47.01;96626.72;611264;230;66602;-59
2023/04/18 11:20:52;;;;;;;;;;;;;;;;;;611750;231;65025;-58
2023/04/18 11:23:23;;;;;;;;;;;;;;;23.92;48.84;96624.22;611561;231;63313;-60
2023/04/18 11:25:53;;;;;;;;;;;;;;;23.95;49.45;96623.61;611515;231;63869;-60
2023/04/18 11:28:20;;;;;;;;;;;;;;;23.98;47.90;96627.59;611416;230;63733;-60
2023/04/18 11:30:48;;;;;;;;;;;;;;;24.01;48.36;96627.80;612251;231;66917;-60
2023/04/18 11:33:15;;;;;;;;;;;;;;;24.03;48.12;96627.49;612416;231;66815;-61
2023/04/18 11:35:44;;;;;;;;;;;;;;;24.06;48.02;96626.89;612191;231;65115;-61
2023/04/18 11:38:13;;;;;;;;;;;;;;;24.09;47.92;96628.97;611743;231;66936;-62
2023/04/18 11:40:42;;;;;;;;;;;;;;;24.11;48.19;96632.94;611133;232;64801;-59
2023/04/18 11:43:13;;;;;;;;;;;;;;;24.13;47.25;96638.81;610882;231;63860;-60
2023/04/18 11:45:41;;;;;;;;;;;;;;;24.16;47.03;96645.48;611987;229;66930;-59
2023/04/18 11:48:10;;;;;;;;;;;;;;;24.20;48.20;96651.03;614086;228;67696;-60
2023/04/18 11:50:37;;;;;;;;;;;;;;;24.20;46.66;96642.98;611723;228;65119;-59
2023/04/18 11:53:05;;;;;;;;;;;;;;;24.24;47.00;96654.72;606605;231;66849;-60
2023/04/18 11:55:32;;;;;;;;;;;;;;;24.26;47.54;96645.27;606835;232;66745;-59
2023/04/18 11:58:02;;;;;;;;;;;;;;;24.27;47.55;96649.53;609015;231;65059;-61
2023/04/18 12:00:32;;;;;;;;;;;;;;;24.29;47.02;96644.67;607564;230;66954;-60
2023/04/18 12:03:03;;;;;;;;;;;;;;;24.32;47.61;96637.91;605527;234;46033;-61
2023/04/18 12:05:32;;;;;;;;;;;;;;;24.32;46.92;96633.31;604486;234;64901;-62
2023/04/18 12:08:01;;;;;;;;;;;;;;;24.34;45.97;96633.03;604558;232;66837;-61
2023/04/18 12:10:29;;;;;;;;;;;;;;;24.36;47.05;96626.27;604214;234;66827;-62
2023/04/18 12:13:00;;;;;;;;;;;;;;;24.37;48.64;96632.42;604650;234;62455;-62
2023/04/18 12:15:28;;;;;;;;;;;;;;;24.39;47.71;96632.92;604343;234;64161;-61
2023/04/18 12:18:00;;;;;;;;;;;;;;;24.41;47.62;96632.61;606743;233;66534;-62
2023/04/18 12:20:35;;;;;;;;;;;;;;;24.42;47.81;96629.63;605756;232;64919;-62
2023/04/18 12:23:03;;;;;;;;;;;;;;;24.45;47.65;96639.01;609414;232;66850;-62
2023/04/18 12:25:30;;;;;;;;;;;;;;;24.47;46.90;96640.30;606433;231;66890;-61
2023/04/18 12:27:59;;;;;;;;;;;;;;;24.48;47.35;96639.19;609499;231;62863;-62
2023/04/18 12:30:28;;;;;;;;;;;;;;;24.50;48.17;96644.23;613845;229;66739;-60
2023/04/18 12:32:56;;;;;;;;;;;;;;;24.51;47.63;96646.64;612844;231;66847;-60
2023/04/18 12:35:26;;;;;;;;;;;;;;;24.53;47.91;96657.09;610857;231;62799;-61
2023/04/18 12:37:55;;;;;;;;;;;;;;;24.54;46.91;96662.15;611517;230;64934;-62
2023/04/18 12:40:25;;;;;;;;;;;;;;;24.57;46.62;96661.54;611041;232;66803;-61
2023/04/18 12:42:53;;;;;;;;;;;;;;;24.58;47.12;96660.45;611313;232;64993;-61
2023/04/18 12:45:21;;;;;;;;;;;;;;;24.62;47.43;96666.02;611029;230;66862;-60
2023/04/18 12:47:50;;;;;;;;;;;;;;;24.63;47.41;96667.59;612245;231;66807;-61
2023/04/18 12:50:19;;;;;;;;;;;;;;;24.66;48.03;96656.23;611938;231;63846;-60
2023/04/18 12:52:46;;;;;;;;;;;;;;;24.68;47.53;96653.26;611444;232;66944;-61
2023/04/18 12:55:14;;;;;;;;;;;;;;;24.69;47.39;96641.41;611620;231;66978;-61